Grammer, Indiana
Current Conditions -  °F | °C
As of 9:07 AM on Saturday 20 Dec 2014 (Local Time) from KBAK Reporting Station
Light Snow Light Snow  
Wind Chill: 28°   Ceiling: 1700
Heat Index: 28°   Visibility: 3mi
Dew Point: 28°   Wind: 0mph
Humidity: 100%   Direction: NA
Pressure: 30.3"   Gusts: NA
Location:  39.15°N, 85.72°W
Report Text: KBAK 201407Z 00000KT 3SM -SNBR BKN017 M02/M02 A3030
Loading
Personal Weather Stations






























Interactive Weather Map New forecast layout! Learn more

10-Day Weather Forecast

Advertisements
Track Severe Weather on mobile